sensor_id;sensor_type;location;lat;lon;timestamp;temperature;humidity
67817;DHT22;54614;47.576;7.524;2023-02-02T00:01:19;21.50;48.60
67817;DHT22;54614;47.576;7.524;2023-02-02T00:03:47;21.50;48.60
67817;DHT22;54614;47.576;7.524;2023-02-02T00:06:16;21.50;48.60
67817;DHT22;54614;47.576;7.524;2023-02-02T00:08:42;21.50;48.60
67817;DHT22;54614;47.576;7.524;2023-02-02T00:11:08;21.50;48.60
67817;DHT22;54614;47.576;7.524;2023-02-02T00:13:34;21.50;48.60
67817;DHT22;54614;47.576;7.524;2023-02-02T00:16:20;21.40;48.60
67817;DHT22;54614;47.576;7.524;2023-02-02T00:18:56;21.40;48.60
67817;DHT22;54614;47.576;7.524;2023-02-02T00:21:26;21.40;48.70
67817;DHT22;54614;47.576;7.524;2023-02-02T00:23:53;21.40;48.60
67817;DHT22;54614;47.576;7.524;2023-02-02T00:26:19;21.40;48.70
67817;DHT22;54614;47.576;7.524;2023-02-02T00:28:46;21.50;48.70
67817;DHT22;54614;47.576;7.524;2023-02-02T00:31:12;21.40;48.60
67817;DHT22;54614;47.576;7.524;2023-02-02T00:33:38;21.40;48.70
67817;DHT22;54614;47.576;7.524;2023-02-02T00:36:04;21.40;48.70
67817;DHT22;54614;47.576;7.524;2023-02-02T00:38:31;21.40;48.70
67817;DHT22;54614;47.576;7.524;2023-02-02T00:40:58;21.40;48.70
67817;DHT22;54614;47.576;7.524;2023-02-02T00:43:24;21.40;48.70
67817;DHT22;54614;47.576;7.524;2023-02-02T00:45:50;21.40;48.70
67817;DHT22;54614;47.576;7.524;2023-02-02T00:48:16;21.40;48.70
67817;DHT22;54614;47.576;7.524;2023-02-02T00:50:41;21.40;48.70
67817;DHT22;54614;47.576;7.524;2023-02-02T00:53:07;21.40;48.70
67817;DHT22;54614;47.576;7.524;2023-02-02T00:55:33;21.40;48.70
67817;DHT22;54614;47.576;7.524;2023-02-02T00:57:59;21.40;48.70
67817;DHT22;54614;47.576;7.524;2023-02-02T01:00:26;21.40;48.70
67817;DHT22;54614;47.576;7.524;2023-02-02T01:02:53;21.40;48.70
67817;DHT22;54614;47.576;7.524;2023-02-02T01:05:20;21.40;48.70
67817;DHT22;54614;47.576;7.524;2023-02-02T01:07:46;21.40;48.80
67817;DHT22;54614;47.576;7.524;2023-02-02T01:12:42;21.40;48.80
67817;DHT22;54614;47.576;7.524;2023-02-02T01:15:10;21.40;48.70
67817;DHT22;54614;47.576;7.524;2023-02-02T01:17:37;21.40;48.80
67817;DHT22;54614;47.576;7.524;2023-02-02T01:20:05;21.40;48.80
67817;DHT22;54614;47.576;7.524;2023-02-02T01:22:32;21.30;48.70
67817;DHT22;54614;47.576;7.524;2023-02-02T01:24:59;21.30;48.70
67817;DHT22;54614;47.576;7.524;2023-02-02T01:27:26;21.30;48.80
67817;DHT22;54614;47.576;7.524;2023-02-02T01:29:51;21.30;48.70
67817;DHT22;54614;47.576;7.524;2023-02-02T01:32:17;21.30;48.70
67817;DHT22;54614;47.576;7.524;2023-02-02T01:34:44;21.30;48.80
67817;DHT22;54614;47.576;7.524;2023-02-02T01:37:10;21.30;48.80
67817;DHT22;54614;47.576;7.524;2023-02-02T01:39:36;21.30;48.80
67817;DHT22;54614;47.576;7.524;2023-02-02T01:42:04;21.30;48.70
67817;DHT22;54614;47.576;7.524;2023-02-02T01:47:53;21.30;48.70
67817;DHT22;54614;47.576;7.524;2023-02-02T01:50:28;21.30;48.70
67817;DHT22;54614;47.576;7.524;2023-02-02T01:52:57;21.30;48.80
67817;DHT22;54614;47.576;7.524;2023-02-02T01:55:28;21.30;48.80
67817;DHT22;54614;47.576;7.524;2023-02-02T01:58:09;21.20;48.70
67817;DHT22;54614;47.576;7.524;2023-02-02T02:00:39;21.30;48.80
67817;DHT22;54614;47.576;7.524;2023-02-02T02:03:17;21.20;48.80
67817;DHT22;54614;47.576;7.524;2023-02-02T02:05:54;21.30;48.80
67817;DHT22;54614;47.576;7.524;2023-02-02T02:09:00;21.20;48.80
67817;DHT22;54614;47.576;7.524;2023-02-02T02:11:28;21.30;48.80
67817;DHT22;54614;47.576;7.524;2023-02-02T02:13:57;21.20;48.80
67817;DHT22;54614;47.576;7.524;2023-02-02T02:32:51;21.20;48.80
67817;DHT22;54614;47.576;7.524;2023-02-02T02:38:24;21.20;48.80
67817;DHT22;54614;47.576;7.524;2023-02-02T02:40:58;21.20;48.80
67817;DHT22;54614;47.576;7.524;2023-02-02T02:43:52;21.20;48.80
67817;DHT22;54614;47.576;7.524;2023-02-02T02:46:23;21.20;48.80
67817;DHT22;54614;47.576;7.524;2023-02-02T02:48:51;21.20;48.90
67817;DHT22;54614;47.576;7.524;2023-02-02T02:54:34;21.20;48.80
67817;DHT22;54614;47.576;7.524;2023-02-02T03:06:21;21.20;48.90
67817;DHT22;54614;47.576;7.524;2023-02-02T03:09:29;21.20;48.90
67817;DHT22;54614;47.576;7.524;2023-02-02T03:12:00;21.20;48.90
67817;DHT22;54614;47.576;7.524;2023-02-02T03:14:26;21.20;48.90
67817;DHT22;54614;47.576;7.524;2023-02-02T03:16:52;21.10;48.90
67817;DHT22;54614;47.576;7.524;2023-02-02T03:19:18;21.20;48.90
67817;DHT22;54614;47.576;7.524;2023-02-02T03:21:44;21.10;48.80
67817;DHT22;54614;47.576;7.524;2023-02-02T03:24:10;21.20;48.90
67817;DHT22;54614;47.576;7.524;2023-02-02T03:26:36;21.10;48.80
67817;DHT22;54614;47.576;7.524;2023-02-02T03:29:02;21.10;48.80
67817;DHT22;54614;47.576;7.524;2023-02-02T03:31:29;21.10;48.90
67817;DHT22;54614;47.576;7.524;2023-02-02T03:33:55;21.10;49.00
67817;DHT22;54614;47.576;7.524;2023-02-02T03:36:21;21.10;49.00
67817;DHT22;54614;47.576;7.524;2023-02-02T03:38:47;21.10;49.00
67817;DHT22;54614;47.576;7.524;2023-02-02T03:41:13;21.10;48.80
67817;DHT22;54614;47.576;7.524;2023-02-02T03:43:39;21.10;48.70
67817;DHT22;54614;47.576;7.524;2023-02-02T03:46:06;21.10;48.60
67817;DHT22;54614;47.576;7.524;2023-02-02T03:48:36;21.10;48.50
67817;DHT22;54614;47.576;7.524;2023-02-02T03:51:11;21.10;48.40
67817;DHT22;54614;47.576;7.524;2023-02-02T03:53:39;21.10;48.40
67817;DHT22;54614;47.576;7.524;2023-02-02T03:56:09;21.10;48.50
67817;DHT22;54614;47.576;7.524;2023-02-02T03:58:35;21.10;48.40
67817;DHT22;54614;47.576;7.524;2023-02-02T04:01:06;21.10;48.30
67817;DHT22;54614;47.576;7.524;2023-02-02T04:03:35;21.10;48.50
67817;DHT22;54614;47.576;7.524;2023-02-02T04:06:01;21.10;48.70
67817;DHT22;54614;47.576;7.524;2023-02-02T04:08:27;21.10;48.80
67817;DHT22;54614;47.576;7.524;2023-02-02T04:10:53;21.10;48.90
67817;DHT22;54614;47.576;7.524;2023-02-02T04:13:19;21.10;49.00
67817;DHT22;54614;47.576;7.524;2023-02-02T04:15:45;21.10;49.00
67817;DHT22;54614;47.576;7.524;2023-02-02T04:18:11;21.10;49.10
67817;DHT22;54614;47.576;7.524;2023-02-02T04:20:37;21.00;49.10
67817;DHT22;54614;47.576;7.524;2023-02-02T04:23:03;21.00;49.00
67817;DHT22;54614;47.576;7.524;2023-02-02T04:25:29;21.00;49.00
67817;DHT22;54614;47.576;7.524;2023-02-02T04:27:54;21.00;49.00
67817;DHT22;54614;47.576;7.524;2023-02-02T04:30:21;21.00;49.10
67817;DHT22;54614;47.576;7.524;2023-02-02T04:32:47;21.00;49.10
67817;DHT22;54614;47.576;7.524;2023-02-02T04:35:12;21.00;49.20
67817;DHT22;54614;47.576;7.524;2023-02-02T04:37:38;21.10;49.20
67817;DHT22;54614;47.576;7.524;2023-02-02T04:40:04;21.00;49.20
67817;DHT22;54614;47.576;7.524;2023-02-02T04:42:31;21.10;49.30
67817;DHT22;54614;47.576;7.524;2023-02-02T04:44:58;21.10;49.30
67817;DHT22;54614;47.576;7.524;2023-02-02T04:47:24;21.10;49.40
67817;DHT22;54614;47.576;7.524;2023-02-02T04:49:50;21.00;49.20
67817;DHT22;54614;47.576;7.524;2023-02-02T04:52:16;21.00;49.20
67817;DHT22;54614;47.576;7.524;2023-02-02T04:54:41;21.00;49.20
67817;DHT22;54614;47.576;7.524;2023-02-02T04:57:07;21.00;49.10
67817;DHT22;54614;47.576;7.524;2023-02-02T04:59:33;21.00;49.00
67817;DHT22;54614;47.576;7.524;2023-02-02T05:01:59;21.00;49.00
67817;DHT22;54614;47.576;7.524;2023-02-02T05:04:26;21.00;49.00
67817;DHT22;54614;47.576;7.524;2023-02-02T05:06:52;21.00;49.00
67817;DHT22;54614;47.576;7.524;2023-02-02T05:09:18;21.00;48.90
67817;DHT22;54614;47.576;7.524;2023-02-02T05:11:43;21.00;48.90
67817;DHT22;54614;47.576;7.524;2023-02-02T05:14:10;21.00;48.80
67817;DHT22;54614;47.576;7.524;2023-02-02T05:16:36;21.00;49.00
67817;DHT22;54614;47.576;7.524;2023-02-02T05:19:02;21.00;49.00
67817;DHT22;54614;47.576;7.524;2023-02-02T05:21:27;21.00;49.00
67817;DHT22;54614;47.576;7.524;2023-02-02T05:23:53;21.00;48.90
67817;DHT22;54614;47.576;7.524;2023-02-02T05:26:25;21.00;49.00
67817;DHT22;54614;47.576;7.524;2023-02-02T05:28:52;21.00;48.90
67817;DHT22;54614;47.576;7.524;2023-02-02T05:31:18;21.00;48.90
67817;DHT22;54614;47.576;7.524;2023-02-02T05:33:44;21.00;48.90
67817;DHT22;54614;47.576;7.524;2023-02-02T05:36:11;21.00;49.10
67817;DHT22;54614;47.576;7.524;2023-02-02T05:38:37;21.00;48.90
67817;DHT22;54614;47.576;7.524;2023-02-02T05:41:04;21.00;49.00
67817;DHT22;54614;47.576;7.524;2023-02-02T05:43:31;21.00;49.00
67817;DHT22;54614;47.576;7.524;2023-02-02T05:45:58;21.00;49.00
67817;DHT22;54614;47.576;7.524;2023-02-02T05:48:24;21.00;48.90
67817;DHT22;54614;47.576;7.524;2023-02-02T05:51:10;21.00;48.70
67817;DHT22;54614;47.576;7.524;2023-02-02T05:53:40;21.00;48.70
67817;DHT22;54614;47.576;7.524;2023-02-02T05:56:06;21.00;49.00
67817;DHT22;54614;47.576;7.524;2023-02-02T05:58:32;21.00;48.80
67817;DHT22;54614;47.576;7.524;2023-02-02T06:00:58;21.00;48.70
67817;DHT22;54614;47.576;7.524;2023-02-02T06:03:23;21.00;48.80
67817;DHT22;54614;47.576;7.524;2023-02-02T06:05:49;21.10;48.70
67817;DHT22;54614;47.576;7.524;2023-02-02T06:08:15;21.00;48.70
67817;DHT22;54614;47.576;7.524;2023-02-02T06:10:41;21.00;48.70
67817;DHT22;54614;47.576;7.524;2023-02-02T06:13:07;21.00;48.80
67817;DHT22;54614;47.576;7.524;2023-02-02T06:15:34;21.00;49.50
67817;DHT22;54614;47.576;7.524;2023-02-02T06:18:01;21.00;48.70
67817;DHT22;54614;47.576;7.524;2023-02-02T06:20:27;21.00;48.80
67817;DHT22;54614;47.576;7.524;2023-02-02T06:22:54;21.00;48.70
67817;DHT22;54614;47.576;7.524;2023-02-02T06:25:19;21.00;52.50
67817;DHT22;54614;47.576;7.524;2023-02-02T06:27:45;21.00;53.40
67817;DHT22;54614;47.576;7.524;2023-02-02T06:30:14;21.00;52.80
67817;DHT22;54614;47.576;7.524;2023-02-02T06:32:40;21.00;51.40
67817;DHT22;54614;47.576;7.524;2023-02-02T06:35:07;21.00;50.80
67817;DHT22;54614;47.576;7.524;2023-02-02T06:37:33;21.10;51.80
67817;DHT22;54614;47.576;7.524;2023-02-02T06:39:59;21.10;50.00
67817;DHT22;54614;47.576;7.524;2023-02-02T06:42:25;21.10;50.00
67817;DHT22;54614;47.576;7.524;2023-02-02T06:44:51;21.10;50.00
67817;DHT22;54614;47.576;7.524;2023-02-02T06:47:16;21.10;50.30
67817;DHT22;54614;47.576;7.524;2023-02-02T06:49:42;21.20;51.80
67817;DHT22;54614;47.576;7.524;2023-02-02T06:52:08;21.10;50.80
67817;DHT22;54614;47.576;7.524;2023-02-02T06:54:34;21.10;50.50
67817;DHT22;54614;47.576;7.524;2023-02-02T06:57:00;21.10;50.20
67817;DHT22;54614;47.576;7.524;2023-02-02T06:59:25;21.10;50.20
67817;DHT22;54614;47.576;7.524;2023-02-02T07:01:51;21.10;50.10
67817;DHT22;54614;47.576;7.524;2023-02-02T07:04:17;21.00;50.20
67817;DHT22;54614;47.576;7.524;2023-02-02T07:06:43;21.10;51.90
67817;DHT22;54614;47.576;7.524;2023-02-02T07:09:10;21.20;56.50
67817;DHT22;54614;47.576;7.524;2023-02-02T07:11:36;21.20;57.70
67817;DHT22;54614;47.576;7.524;2023-02-02T07:14:02;21.20;54.00
67817;DHT22;54614;47.576;7.524;2023-02-02T07:16:29;21.20;52.70
67817;DHT22;54614;47.576;7.524;2023-02-02T07:18:56;21.30;52.10
67817;DHT22;54614;47.576;7.524;2023-02-02T07:21:24;21.30;51.70
67817;DHT22;54614;47.576;7.524;2023-02-02T07:23:52;21.30;51.50
67817;DHT22;54614;47.576;7.524;2023-02-02T07:26:19;21.30;51.30
67817;DHT22;54614;47.576;7.524;2023-02-02T07:28:45;21.30;51.20
67817;DHT22;54614;47.576;7.524;2023-02-02T07:31:17;21.30;51.10
67817;DHT22;54614;47.576;7.524;2023-02-02T07:33:45;21.30;51.00
67817;DHT22;54614;47.576;7.524;2023-02-02T07:36:14;21.30;50.80
67817;DHT22;54614;47.576;7.524;2023-02-02T07:38:42;21.30;50.70
67817;DHT22;54614;47.576;7.524;2023-02-02T07:41:13;21.40;50.70
67817;DHT22;54614;47.576;7.524;2023-02-02T07:43:40;21.40;50.70
67817;DHT22;54614;47.576;7.524;2023-02-02T07:46:07;21.40;50.70
67817;DHT22;54614;47.576;7.524;2023-02-02T07:48:35;21.40;50.60
67817;DHT22;54614;47.576;7.524;2023-02-02T07:51:03;21.40;50.50
67817;DHT22;54614;47.576;7.524;2023-02-02T07:53:32;21.40;50.50
67817;DHT22;54614;47.576;7.524;2023-02-02T07:56:13;21.40;50.40
67817;DHT22;54614;47.576;7.524;2023-02-02T07:58:41;21.40;50.40
67817;DHT22;54614;47.576;7.524;2023-02-02T08:01:10;21.40;50.40
67817;DHT22;54614;47.576;7.524;2023-02-02T08:03:38;21.50;50.30
67817;DHT22;54614;47.576;7.524;2023-02-02T08:06:23;21.50;50.30
67817;DHT22;54614;47.576;7.524;2023-02-02T08:08:51;21.50;50.20
67817;DHT22;54614;47.576;7.524;2023-02-02T08:11:19;21.50;50.20
67817;DHT22;54614;47.576;7.524;2023-02-02T08:13:52;21.40;50.10
67817;DHT22;54614;47.576;7.524;2023-02-02T08:16:20;21.40;50.10
67817;DHT22;54614;47.576;7.524;2023-02-02T08:18:47;21.40;50.70
67817;DHT22;54614;47.576;7.524;2023-02-02T08:21:13;21.40;50.10
67817;DHT22;54614;47.576;7.524;2023-02-02T08:23:40;21.40;50.10
67817;DHT22;54614;47.576;7.524;2023-02-02T08:26:13;21.40;50.10
67817;DHT22;54614;47.576;7.524;2023-02-02T08:28:40;21.40;50.10
67817;DHT22;54614;47.576;7.524;2023-02-02T08:31:10;21.40;50.10
67817;DHT22;54614;47.576;7.524;2023-02-02T08:33:39;21.40;50.10
67817;DHT22;54614;47.576;7.524;2023-02-02T08:36:11;21.40;50.10
67817;DHT22;54614;47.576;7.524;2023-02-02T08:38:42;21.40;50.20
67817;DHT22;54614;47.576;7.524;2023-02-02T08:41:11;21.40;50.20
67817;DHT22;54614;47.576;7.524;2023-02-02T08:43:38;21.40;50.20
67817;DHT22;54614;47.576;7.524;2023-02-02T08:46:06;21.30;50.20
67817;DHT22;54614;47.576;7.524;2023-02-02T08:48:35;21.30;50.20
67817;DHT22;54614;47.576;7.524;2023-02-02T08:51:01;21.30;50.30
67817;DHT22;54614;47.576;7.524;2023-02-02T08:53:28;21.30;50.30
67817;DHT22;54614;47.576;7.524;2023-02-02T08:56:06;21.30;50.30
67817;DHT22;54614;47.576;7.524;2023-02-02T08:58:36;21.30;50.30
67817;DHT22;54614;47.576;7.524;2023-02-02T09:01:23;21.30;50.30
67817;DHT22;54614;47.576;7.524;2023-02-02T09:04:00;21.30;50.40
67817;DHT22;54614;47.576;7.524;2023-02-02T09:06:34;21.20;50.30
67817;DHT22;54614;47.576;7.524;2023-02-02T09:09:07;21.20;50.30
67817;DHT22;54614;47.576;7.524;2023-02-02T09:11:36;21.20;50.40
67817;DHT22;54614;47.576;7.524;2023-02-02T09:14:03;21.20;50.30
67817;DHT22;54614;47.576;7.524;2023-02-02T09:16:31;21.20;50.30
67817;DHT22;54614;47.576;7.524;2023-02-02T09:18:58;21.20;50.30
67817;DHT22;54614;47.576;7.524;2023-02-02T09:21:24;21.20;50.40
67817;DHT22;54614;47.576;7.524;2023-02-02T09:23:52;21.20;50.40
67817;DHT22;54614;47.576;7.524;2023-02-02T09:26:20;21.20;50.40
67817;DHT22;54614;47.576;7.524;2023-02-02T09:28:53;21.20;50.40
67817;DHT22;54614;47.576;7.524;2023-02-02T09:31:19;21.20;50.50
67817;DHT22;54614;47.576;7.524;2023-02-02T09:33:46;21.20;50.60
67817;DHT22;54614;47.576;7.524;2023-02-02T09:36:19;21.20;50.40
67817;DHT22;54614;47.576;7.524;2023-02-02T09:38:50;21.20;50.30
67817;DHT22;54614;47.576;7.524;2023-02-02T09:41:55;21.30;50.40
67817;DHT22;54614;47.576;7.524;2023-02-02T09:44:32;21.20;50.30
67817;DHT22;54614;47.576;7.524;2023-02-02T09:55:47;21.20;50.40
67817;DHT22;54614;47.576;7.524;2023-02-02T10:01:23;21.20;50.40
67817;DHT22;54614;47.576;7.524;2023-02-02T10:04:21;21.20;50.30
67817;DHT22;54614;47.576;7.524;2023-02-02T10:06:55;21.20;50.20
67817;DHT22;54614;47.576;7.524;2023-02-02T10:15:01;21.20;50.20
67817;DHT22;54614;47.576;7.524;2023-02-02T10:23:35;21.20;50.30
67817;DHT22;54614;47.576;7.524;2023-02-02T10:26:12;21.20;50.30
67817;DHT22;54614;47.576;7.524;2023-02-02T10:48:45;21.20;50.20
67817;DHT22;54614;47.576;7.524;2023-02-02T10:51:28;21.20;50.20
67817;DHT22;54614;47.576;7.524;2023-02-02T10:53:57;21.20;50.20
67817;DHT22;54614;47.576;7.524;2023-02-02T10:56:39;21.20;50.20
67817;DHT22;54614;47.576;7.524;2023-02-02T10:59:20;21.20;50.20
67817;DHT22;54614;47.576;7.524;2023-02-02T11:01:54;21.20;50.20
67817;DHT22;54614;47.576;7.524;2023-02-02T11:04:20;21.20;50.20
67817;DHT22;54614;47.576;7.524;2023-02-02T11:07:05;21.20;50.20
67817;DHT22;54614;47.576;7.524;2023-02-02T11:09:40;21.20;50.00
67817;DHT22;54614;47.576;7.524;2023-02-02T11:12:19;21.20;50.00
67817;DHT22;54614;47.576;7.524;2023-02-02T11:15:05;21.20;50.00
67817;DHT22;54614;47.576;7.524;2023-02-02T11:17:33;21.20;50.10
67817;DHT22;54614;47.576;7.524;2023-02-02T11:19:59;21.10;50.00
67817;DHT22;54614;47.576;7.524;2023-02-02T11:22:36;21.20;50.00
67817;DHT22;54614;47.576;7.524;2023-02-02T11:25:21;21.20;50.00
67817;DHT22;54614;47.576;7.524;2023-02-02T11:27:50;21.20;50.00
67817;DHT22;54614;47.576;7.524;2023-02-02T11:30:31;21.20;50.00
67817;DHT22;54614;47.576;7.524;2023-02-02T11:32:59;21.20;50.00
67817;DHT22;54614;47.576;7.524;2023-02-02T11:35:26;21.20;50.00
67817;DHT22;54614;47.576;7.524;2023-02-02T11:38:14;21.20;50.10
67817;DHT22;54614;47.576;7.524;2023-02-02T11:40:51;21.10;50.00
67817;DHT22;54614;47.576;7.524;2023-02-02T11:46:23;21.10;50.10
67817;DHT22;54614;47.576;7.524;2023-02-02T11:49:02;21.10;50.10
67817;DHT22;54614;47.576;7.524;2023-02-02T11:51:33;21.10;50.10
67817;DHT22;54614;47.576;7.524;2023-02-02T11:54:17;21.10;50.10
67817;DHT22;54614;47.576;7.524;2023-02-02T11:56:56;21.10;50.10
67817;DHT22;54614;47.576;7.524;2023-02-02T11:59:34;21.10;50.20
67817;DHT22;54614;47.576;7.524;2023-02-02T12:02:23;21.10;50.20
67817;DHT22;54614;47.576;7.524;2023-02-02T12:04:55;21.10;50.20
67817;DHT22;54614;47.576;7.524;2023-02-02T12:07:36;21.10;50.20
67817;DHT22;54614;47.576;7.524;2023-02-02T12:10:27;21.10;50.20
67817;DHT22;54614;47.576;7.524;2023-02-02T12:20:07;21.00;50.20
67817;DHT22;54614;47.576;7.524;2023-02-02T12:34:15;21.00;50.30
67817;DHT22;54614;47.576;7.524;2023-02-02T12:37:22;21.00;50.30
67817;DHT22;54614;47.576;7.524;2023-02-02T12:40:28;21.00;50.30
67817;DHT22;54614;47.576;7.524;2023-02-02T12:43:14;21.00;50.30
67817;DHT22;54614;47.576;7.524;2023-02-02T13:03:29;21.00;50.30
67817;DHT22;54614;47.576;7.524;2023-02-02T13:09:12;21.00;50.30
67817;DHT22;54614;47.576;7.524;2023-02-02T13:12:12;21.00;50.30
67817;DHT22;54614;47.576;7.524;2023-02-02T13:14:49;21.00;50.30
67817;DHT22;54614;47.576;7.524;2023-02-02T13:20:30;21.00;50.30
67817;DHT22;54614;47.576;7.524;2023-02-02T13:26:06;21.00;50.30
67817;DHT22;54614;47.576;7.524;2023-02-02T13:31:41;21.00;50.40
67817;DHT22;54614;47.576;7.524;2023-02-02T13:40:23;20.90;50.40
67817;DHT22;54614;47.576;7.524;2023-02-02T14:01:08;20.90;50.40
67817;DHT22;54614;47.576;7.524;2023-02-02T14:03:38;20.90;50.40
67817;DHT22;54614;47.576;7.524;2023-02-02T14:06:15;20.90;50.40
67817;DHT22;54614;47.576;7.524;2023-02-02T14:09:01;20.90;50.30
67817;DHT22;54614;47.576;7.524;2023-02-02T14:11:30;20.90;50.20
67817;DHT22;54614;47.576;7.524;2023-02-02T14:24:48;21.00;50.50
67817;DHT22;54614;47.576;7.524;2023-02-02T14:48:32;20.90;50.20
67817;DHT22;54614;47.576;7.524;2023-02-02T14:51:00;20.90;50.30
67817;DHT22;54614;47.576;7.524;2023-02-02T14:56:12;20.90;50.40
67817;DHT22;54614;47.576;7.524;2023-02-02T14:58:56;20.90;50.40
67817;DHT22;54614;47.576;7.524;2023-02-02T15:01:33;20.90;50.30
67817;DHT22;54614;47.576;7.524;2023-02-02T15:06:47;20.90;50.10
67817;DHT22;54614;47.576;7.524;2023-02-02T15:20:17;20.90;51.40
67817;DHT22;54614;47.576;7.524;2023-02-02T15:22:59;20.90;51.30
67817;DHT22;54614;47.576;7.524;2023-02-02T15:28:41;20.90;50.80
67817;DHT22;54614;47.576;7.524;2023-02-02T15:31:21;20.90;50.50
67817;DHT22;54614;47.576;7.524;2023-02-02T15:33:54;20.90;50.70
67817;DHT22;54614;47.576;7.524;2023-02-02T15:36:31;20.90;51.20
67817;DHT22;54614;47.576;7.524;2023-02-02T15:39:09;20.80;51.60
67817;DHT22;54614;47.576;7.524;2023-02-02T15:41:42;20.70;51.50
67817;DHT22;54614;47.576;7.524;2023-02-02T15:44:27;20.70;51.90
67817;DHT22;54614;47.576;7.524;2023-02-02T15:46:55;20.60;52.10
67817;DHT22;54614;47.576;7.524;2023-02-02T15:49:31;20.60;52.00
67817;DHT22;54614;47.576;7.524;2023-02-02T15:52:02;20.60;52.00
67817;DHT22;54614;47.576;7.524;2023-02-02T15:54:35;20.60;52.00
67817;DHT22;54614;47.576;7.524;2023-02-02T15:57:31;20.60;51.90
67817;DHT22;54614;47.576;7.524;2023-02-02T15:59:59;20.60;51.90
67817;DHT22;54614;47.576;7.524;2023-02-02T16:02:52;20.60;51.90
67817;DHT22;54614;47.576;7.524;2023-02-02T16:07:54;20.60;51.90
67817;DHT22;54614;47.576;7.524;2023-02-02T16:10:22;20.60;51.90
67817;DHT22;54614;47.576;7.524;2023-02-02T16:12:48;20.60;51.90
67817;DHT22;54614;47.576;7.524;2023-02-02T16:15:25;20.60;51.90
67817;DHT22;54614;47.576;7.524;2023-02-02T16:18:04;20.60;51.90
67817;DHT22;54614;47.576;7.524;2023-02-02T16:20:36;20.60;51.90
67817;DHT22;54614;47.576;7.524;2023-02-02T16:23:05;20.60;51.80
67817;DHT22;54614;47.576;7.524;2023-02-02T16:25:51;20.60;51.70
67817;DHT22;54614;47.576;7.524;2023-02-02T16:28:20;20.70;51.50
67817;DHT22;54614;47.576;7.524;2023-02-02T16:30:47;20.80;51.30
67817;DHT22;54614;47.576;7.524;2023-02-02T16:33:59;20.80;50.70
67817;DHT22;54614;47.576;7.524;2023-02-02T16:36:21;20.90;50.40
67817;DHT22;54614;47.576;7.524;2023-02-02T16:38:49;20.90;50.40
67817;DHT22;54614;47.576;7.524;2023-02-02T16:41:28;21.00;50.50
67817;DHT22;54614;47.576;7.524;2023-02-02T16:44:29;20.90;52.10
67817;DHT22;54614;47.576;7.524;2023-02-02T16:47:36;20.80;52.10
67817;DHT22;54614;47.576;7.524;2023-02-02T16:52:47;20.80;52.00
67817;DHT22;54614;47.576;7.524;2023-02-02T16:55:17;20.80;52.00
67817;DHT22;54614;47.576;7.524;2023-02-02T16:57:46;20.70;52.10
67817;DHT22;54614;47.576;7.524;2023-02-02T17:02:46;20.70;51.70
67817;DHT22;54614;47.576;7.524;2023-02-02T17:05:16;20.70;51.90
67817;DHT22;54614;47.576;7.524;2023-02-02T17:07:50;20.70;52.00
67817;DHT22;54614;47.576;7.524;2023-02-02T17:10:24;20.70;52.00
67817;DHT22;54614;47.576;7.524;2023-02-02T17:12:58;20.70;52.10
67817;DHT22;54614;47.576;7.524;2023-02-02T17:15:29;20.70;52.00
67817;DHT22;54614;47.576;7.524;2023-02-02T17:17:59;20.70;51.90
67817;DHT22;54614;47.576;7.524;2023-02-02T17:20:26;20.70;51.70
67817;DHT22;54614;47.576;7.524;2023-02-02T17:22:59;20.70;51.90
67817;DHT22;54614;47.576;7.524;2023-02-02T17:25:36;20.60;51.90
67817;DHT22;54614;47.576;7.524;2023-02-02T17:28:11;20.70;52.10
67817;DHT22;54614;47.576;7.524;2023-02-02T17:30:47;20.60;51.90
67817;DHT22;54614;47.576;7.524;2023-02-02T17:33:19;20.60;52.10
67817;DHT22;54614;47.576;7.524;2023-02-02T17:35:45;20.70;52.10
67817;DHT22;54614;47.576;7.524;2023-02-02T17:38:12;20.70;51.70
67817;DHT22;54614;47.576;7.524;2023-02-02T17:40:38;20.80;51.20
67817;DHT22;54614;47.576;7.524;2023-02-02T17:43:07;20.90;50.90
67817;DHT22;54614;47.576;7.524;2023-02-02T17:45:36;20.90;50.40
67817;DHT22;54614;47.576;7.524;2023-02-02T17:48:03;20.90;50.40
67817;DHT22;54614;47.576;7.524;2023-02-02T17:50:31;20.90;50.50
67817;DHT22;54614;47.576;7.524;2023-02-02T17:52:58;20.90;50.50
67817;DHT22;54614;47.576;7.524;2023-02-02T17:55:29;20.90;50.80
67817;DHT22;54614;47.576;7.524;2023-02-02T17:57:57;20.90;50.80
67817;DHT22;54614;47.576;7.524;2023-02-02T18:00:24;20.90;50.80
67817;DHT22;54614;47.576;7.524;2023-02-02T18:02:53;20.90;51.00
67817;DHT22;54614;47.576;7.524;2023-02-02T18:05:22;20.90;51.10
67817;DHT22;54614;47.576;7.524;2023-02-02T18:07:47;20.90;51.10
67817;DHT22;54614;47.576;7.524;2023-02-02T18:10:14;20.90;51.10
67817;DHT22;54614;47.576;7.524;2023-02-02T18:12:41;20.80;51.90
67817;DHT22;54614;47.576;7.524;2023-02-02T18:15:10;20.70;51.90
67817;DHT22;54614;47.576;7.524;2023-02-02T18:17:37;20.60;51.40
67817;DHT22;54614;47.576;7.524;2023-02-02T18:20:03;20.80;51.10
67817;DHT22;54614;47.576;7.524;2023-02-02T18:22:30;20.80;50.80
67817;DHT22;54614;47.576;7.524;2023-02-02T18:24:56;20.90;50.40
67817;DHT22;54614;47.576;7.524;2023-02-02T18:27:23;20.90;50.50
67817;DHT22;54614;47.576;7.524;2023-02-02T18:29:49;21.00;50.30
67817;DHT22;54614;47.576;7.524;2023-02-02T18:32:16;21.00;50.00
67817;DHT22;54614;47.576;7.524;2023-02-02T18:34:42;21.00;50.00
67817;DHT22;54614;47.576;7.524;2023-02-02T18:37:09;21.10;50.50
67817;DHT22;54614;47.576;7.524;2023-02-02T18:39:35;21.10;51.00
67817;DHT22;54614;47.576;7.524;2023-02-02T18:42:01;21.10;51.40
67817;DHT22;54614;47.576;7.524;2023-02-02T18:44:27;21.20;51.90
67817;DHT22;54614;47.576;7.524;2023-02-02T18:46:53;21.30;52.00
67817;DHT22;54614;47.576;7.524;2023-02-02T18:49:19;21.30;52.10
67817;DHT22;54614;47.576;7.524;2023-02-02T18:51:46;21.40;52.40
67817;DHT22;54614;47.576;7.524;2023-02-02T18:54:12;21.40;52.20
67817;DHT22;54614;47.576;7.524;2023-02-02T18:56:39;21.40;52.30
67817;DHT22;54614;47.576;7.524;2023-02-02T18:59:05;21.50;52.60
67817;DHT22;54614;47.576;7.524;2023-02-02T19:01:32;21.50;52.40
67817;DHT22;54614;47.576;7.524;2023-02-02T19:03:59;21.60;52.60
67817;DHT22;54614;47.576;7.524;2023-02-02T19:06:26;21.60;52.70
67817;DHT22;54614;47.576;7.524;2023-02-02T19:09:11;21.60;52.80
67817;DHT22;54614;47.576;7.524;2023-02-02T19:11:49;21.60;52.60
67817;DHT22;54614;47.576;7.524;2023-02-02T19:14:21;21.70;52.60
67817;DHT22;54614;47.576;7.524;2023-02-02T19:16:53;21.70;52.50
67817;DHT22;54614;47.576;7.524;2023-02-02T19:19:32;21.80;52.60
67817;DHT22;54614;47.576;7.524;2023-02-02T19:22:20;21.80;52.60
67817;DHT22;54614;47.576;7.524;2023-02-02T19:24:48;21.80;52.60
67817;DHT22;54614;47.576;7.524;2023-02-02T19:27:24;21.80;52.60
67817;DHT22;54614;47.576;7.524;2023-02-02T19:29:55;21.80;52.50